createdAt,value
2018-11-12T00:01:37.159Z,2.40
2018-11-12T00:04:05.440Z,3.50
2018-11-12T00:06:33.666Z,3.10
2018-11-12T00:09:01.913Z,3.13
2018-11-12T00:11:30.132Z,3.53
2018-11-12T00:13:58.404Z,2.13
2018-11-12T00:16:26.710Z,2.50
2018-11-12T00:18:54.973Z,3.97
2018-11-12T00:21:23.229Z,6.73
2018-11-12T00:23:51.477Z,3.40
2018-11-12T00:26:19.710Z,2.07
2018-11-12T00:28:47.994Z,1.90
2018-11-12T00:31:16.299Z,4.33
2018-11-12T00:33:44.534Z,4.33
2018-11-12T00:36:12.815Z,3.40
2018-11-12T00:38:41.095Z,3.00
2018-11-12T00:41:09.374Z,2.70
2018-11-12T00:43:37.604Z,5.10
2018-11-12T00:46:05.905Z,1.97
2018-11-12T00:48:34.166Z,6.20
2018-11-12T00:51:02.423Z,2.77
2018-11-12T00:53:30.651Z,2.03
2018-11-12T00:55:58.866Z,2.37
2018-11-12T00:58:27.135Z,6.50
2018-11-12T01:00:55.934Z,2.63
2018-11-12T01:03:24.210Z,2.20
2018-11-12T01:05:52.439Z,2.33
2018-11-12T01:08:20.716Z,1.90
2018-11-12T01:10:48.988Z,6.13
2018-11-12T01:13:17.365Z,7.90
2018-11-12T01:15:45.635Z,2.20
2018-11-12T01:18:13.953Z,2.13
2018-11-12T01:20:42.247Z,2.63
2018-11-12T01:23:10.487Z,3.93
2018-11-12T01:25:38.794Z,2.37
2018-11-12T01:28:07.016Z,2.83
2018-11-12T01:30:35.243Z,2.17
2018-11-12T01:33:03.515Z,2.93
2018-11-12T01:35:31.820Z,5.73
2018-11-12T01:38:00.143Z,3.33
2018-11-12T01:40:28.462Z,5.87
2018-11-12T01:42:56.852Z,3.60
2018-11-12T01:45:25.203Z,2.47
2018-11-12T01:47:53.495Z,2.97
2018-11-12T01:50:21.853Z,2.67
2018-11-12T01:52:50.143Z,3.70
2018-11-12T01:55:19.227Z,2.73
2018-11-12T01:57:47.523Z,4.80
2018-11-12T02:00:18.374Z,3.07
2018-11-12T02:02:47.943Z,4.53
2018-11-12T02:05:16.554Z,4.57
2018-11-12T02:07:44.849Z,5.23
2018-11-12T02:10:14.196Z,5.13
2018-11-12T02:12:42.602Z,3.27
2018-11-12T02:15:13.187Z,3.60
2018-11-12T02:17:41.805Z,7.40
2018-11-12T02:20:11.856Z,3.70
2018-11-12T02:22:40.223Z,8.47
2018-11-12T02:25:09.603Z,5.40
2018-11-12T02:27:38.013Z,5.63
2018-11-12T02:30:09.484Z,6.70
2018-11-12T02:32:37.764Z,7.20
2018-11-12T02:35:06.334Z,7.13
2018-11-12T02:37:35.221Z,7.30
2018-11-12T02:40:03.457Z,6.23
2018-11-12T02:42:31.733Z,4.83
2018-11-12T02:45:00.062Z,7.03
2018-11-12T02:47:28.348Z,6.43
2018-11-12T02:49:56.606Z,5.17
2018-11-12T02:52:24.891Z,7.57
2018-11-12T02:54:53.115Z,5.07
2018-11-12T02:57:21.429Z,5.57
2018-11-12T02:59:49.718Z,5.00
2018-11-12T03:02:17.988Z,6.43
2018-11-12T03:04:46.235Z,5.90
2018-11-12T03:07:14.490Z,6.70
2018-11-12T03:09:42.860Z,5.20
2018-11-12T03:12:11.202Z,7.90
2018-11-12T03:14:39.439Z,4.97
2018-11-12T03:17:07.726Z,8.40
2018-11-12T03:19:36.069Z,6.00
2018-11-12T03:22:04.349Z,7.03
2018-11-12T03:24:32.636Z,7.73
2018-11-12T03:27:00.839Z,9.77
2018-11-12T03:29:29.050Z,6.67
2018-11-12T03:31:57.352Z,6.70
2018-11-12T03:34:25.627Z,6.70
2018-11-12T03:36:53.907Z,5.87
2018-11-12T03:39:22.165Z,6.70
2018-11-12T03:41:50.427Z,7.23
2018-11-12T03:44:18.683Z,5.67
2018-11-12T03:46:46.936Z,7.07
2018-11-12T03:49:15.241Z,8.03
2018-11-12T03:51:43.558Z,8.73
2018-11-12T03:54:11.788Z,5.87
2018-11-12T03:56:40.028Z,7.07
2018-11-12T03:59:08.579Z,7.67
2018-11-12T04:01:43.426Z,5.93
2018-11-12T04:04:12.170Z,5.73
2018-11-12T04:06:40.413Z,6.90
2018-11-12T04:09:10.607Z,9.10
2018-11-12T04:11:39.330Z,5.70
2018-11-12T04:14:08.392Z,5.87
2018-11-12T04:16:36.758Z,4.90
2018-11-12T04:19:05.475Z,6.27
2018-11-12T04:21:33.998Z,4.57
2018-11-12T04:24:02.259Z,6.47
2018-11-12T04:26:30.667Z,10.90
2018-11-12T04:28:59.123Z,6.67
2018-11-12T04:31:27.371Z,7.17
2018-11-12T04:33:55.753Z,16.30
2018-11-12T04:36:24.034Z,6.73
2018-11-12T04:38:52.302Z,8.47
2018-11-12T04:41:20.546Z,5.37
2018-11-12T04:43:48.819Z,5.77
2018-11-12T04:46:17.087Z,5.60
2018-11-12T04:48:45.379Z,6.30
2018-11-12T04:51:13.615Z,5.53
2018-11-12T04:53:41.917Z,4.70
2018-11-12T04:56:10.160Z,5.37
2018-11-12T04:58:38.440Z,9.57
2018-11-12T05:01:06.964Z,6.47
2018-11-12T05:03:35.219Z,9.37
2018-11-12T05:06:03.494Z,6.00
2018-11-12T05:08:31.789Z,6.60
2018-11-12T05:11:00.052Z,8.13
2018-11-12T05:13:28.276Z,6.73
2018-11-12T05:15:56.540Z,6.30
2018-11-12T05:18:24.768Z,7.63
2018-11-12T05:20:53.068Z,6.53
2018-11-12T05:23:21.295Z,7.70
2018-11-12T05:25:49.517Z,17.67
2018-11-12T05:28:17.820Z,8.13
2018-11-12T05:30:46.066Z,5.07
2018-11-12T05:33:14.291Z,6.00
2018-11-12T05:35:42.558Z,12.03
2018-11-12T05:38:10.830Z,7.20
2018-11-12T05:40:39.065Z,7.73
2018-11-12T05:43:07.341Z,7.90
2018-11-12T05:45:35.642Z,10.60
2018-11-12T05:48:03.962Z,4.57
2018-11-12T05:50:32.526Z,6.30
2018-11-12T05:53:02.073Z,5.80
2018-11-12T05:55:30.940Z,8.03
2018-11-12T05:57:59.462Z,10.83
2018-11-12T06:00:29.184Z,11.53
2018-11-12T06:02:57.398Z,9.10
2018-11-12T06:05:25.679Z,7.67
2018-11-12T06:07:53.942Z,9.07
2018-11-12T06:10:23.703Z,6.70
2018-11-12T06:12:52.121Z,7.03
2018-11-12T06:15:20.616Z,8.03
2018-11-12T06:17:49.575Z,7.00
2018-11-12T06:20:20.983Z,9.80
2018-11-12T06:22:49.314Z,8.50
2018-11-12T06:25:19.175Z,8.07
2018-11-12T06:27:47.758Z,8.20
2018-11-12T06:30:20.355Z,6.23
2018-11-12T06:32:48.789Z,9.00
2018-11-12T06:35:17.537Z,15.27
2018-11-12T06:37:46.486Z,6.67
2018-11-12T06:40:15.995Z,5.73
2018-11-12T06:42:44.359Z,8.47
2018-11-12T06:45:14.858Z,5.23
2018-11-12T06:47:44.023Z,9.33
2018-11-12T06:50:14.545Z,5.63
2018-11-12T06:52:42.858Z,7.27
2018-11-12T06:55:13.252Z,8.60
2018-11-12T06:57:41.811Z,5.93
2018-11-12T07:00:13.515Z,5.87
2018-11-12T07:02:41.781Z,6.23
2018-11-12T07:05:10.670Z,5.17
2018-11-12T07:07:39.266Z,7.03
2018-11-12T07:10:09.483Z,5.97
2018-11-12T07:12:37.900Z,6.87
2018-11-12T07:15:07.884Z,5.57
2018-11-12T07:17:36.145Z,5.70
2018-11-12T07:20:05.195Z,9.53
2018-11-12T07:22:33.530Z,4.73
2018-11-12T07:25:01.864Z,5.43
2018-11-12T07:27:30.046Z,4.33
2018-11-12T07:29:58.306Z,5.17
2018-11-12T07:32:26.591Z,5.10
2018-11-12T07:34:54.852Z,8.40
2018-11-12T07:37:23.108Z,3.17
2018-11-12T07:39:51.450Z,3.70
2018-11-12T07:42:19.747Z,3.53
2018-11-12T07:44:48.007Z,3.00
2018-11-12T07:47:16.324Z,4.33
2018-11-12T07:49:44.680Z,4.30
2018-11-12T07:52:12.986Z,4.63
2018-11-12T07:54:41.321Z,3.87
2018-11-12T07:57:09.608Z,2.73
2018-11-12T07:59:37.866Z,3.67
2018-11-12T08:02:06.147Z,2.87
2018-11-12T08:04:34.456Z,2.97
2018-11-12T08:07:02.763Z,3.00
2018-11-12T08:09:31.042Z,2.60
2018-11-12T08:11:59.310Z,3.57
2018-11-12T08:14:27.610Z,2.90
2018-11-12T08:16:55.813Z,7.70
2018-11-12T08:19:24.163Z,3.37
2018-11-12T08:21:52.490Z,3.67
2018-11-12T08:24:20.822Z,2.47
2018-11-12T08:26:48.999Z,2.80
2018-11-12T08:29:17.477Z,1.90
2018-11-12T08:31:45.711Z,2.77
2018-11-12T08:34:14.608Z,3.43
2018-11-12T08:36:42.998Z,2.00
2018-11-12T08:39:11.220Z,7.23
2018-11-12T08:41:39.503Z,2.77
2018-11-12T08:44:07.847Z,3.03
2018-11-12T08:46:36.091Z,1.70
2018-11-12T08:49:04.812Z,2.03
2018-11-12T08:51:33.042Z,5.00
2018-11-12T08:54:01.363Z,3.10
2018-11-12T08:56:29.624Z,2.80
2018-11-12T08:58:57.923Z,5.20
2018-11-12T09:01:26.196Z,3.30
2018-11-12T09:03:54.474Z,3.47
2018-11-12T09:06:22.818Z,2.30
2018-11-12T09:08:51.143Z,2.50
2018-11-12T09:11:19.432Z,3.23
2018-11-12T09:13:47.707Z,3.53
2018-11-12T09:16:15.953Z,3.80
2018-11-12T09:18:44.226Z,3.73
2018-11-12T09:21:12.501Z,5.50
2018-11-12T09:23:40.859Z,3.47
2018-11-12T09:26:09.177Z,1.93
2018-11-12T09:28:37.948Z,2.47
2018-11-12T09:31:07.525Z,2.27
2018-11-12T09:33:34.485Z,5.30
2018-11-12T09:36:02.724Z,4.07
2018-11-12T09:38:31.034Z,4.23
2018-11-12T09:40:59.271Z,2.67
2018-11-12T09:43:27.562Z,3.40
2018-11-12T09:45:55.856Z,5.23
2018-11-12T09:48:24.059Z,7.83
2018-11-12T09:50:52.327Z,4.50
2018-11-12T09:53:20.562Z,2.33
2018-11-12T09:55:48.816Z,5.43
2018-11-12T09:58:17.101Z,3.97
2018-11-12T10:00:45.640Z,4.90
2018-11-12T10:03:14.810Z,2.80
2018-11-12T10:05:43.042Z,12.67
2018-11-12T10:08:13.715Z,1.70
2018-11-12T10:10:45.497Z,2.37
2018-11-12T10:13:15.264Z,3.13
2018-11-12T10:15:44.645Z,3.10
2018-11-12T10:20:38.410Z,4.30
2018-11-12T10:23:06.638Z,3.73
2018-11-12T10:25:34.912Z,2.00
2018-11-12T10:28:03.203Z,2.47
2018-11-12T10:30:31.501Z,2.17
2018-11-12T10:32:59.748Z,3.30
2018-11-12T10:35:28.094Z,2.17
2018-11-12T10:37:56.365Z,5.23
2018-11-12T10:40:25.255Z,3.23
2018-11-12T10:42:53.644Z,11.37
2018-11-12T10:45:22.021Z,2.00
2018-11-12T10:47:51.347Z,2.97
2018-11-12T10:50:19.714Z,2.30
2018-11-12T10:52:48.002Z,3.07
2018-11-12T10:55:17.750Z,2.57
2018-11-12T10:57:46.476Z,3.83
2018-11-12T11:00:25.488Z,3.27
2018-11-12T11:03:00.566Z,3.93
2018-11-12T11:05:28.913Z,6.57
2018-11-12T11:07:57.220Z,2.13
2018-11-12T11:10:26.739Z,3.67
2018-11-12T11:12:55.891Z,4.53
2018-11-12T11:15:24.225Z,2.73
2018-11-12T11:17:52.435Z,3.73
2018-11-12T11:20:20.691Z,4.33
2018-11-12T11:22:48.996Z,3.50
2018-11-12T11:25:17.265Z,3.00
2018-11-12T11:27:45.645Z,3.10
2018-11-12T11:30:16.246Z,3.83
2018-11-12T11:32:44.812Z,2.77
2018-11-12T11:35:14.340Z,6.97
2018-11-12T11:37:42.688Z,2.47
2018-11-12T11:40:17.457Z,6.00
2018-11-12T11:42:45.674Z,10.53
2018-11-12T11:45:14.733Z,4.43
2018-11-12T11:47:43.547Z,6.47
2018-11-12T11:50:13.878Z,5.73
2018-11-12T11:52:42.063Z,7.53
2018-11-12T11:55:12.477Z,3.40
2018-11-12T11:57:41.093Z,4.37
2018-11-12T12:00:12.001Z,5.90
2018-11-12T12:02:40.537Z,3.23
2018-11-12T12:05:10.085Z,3.40
2018-11-12T12:07:38.413Z,3.60
2018-11-12T12:10:07.580Z,5.17
2018-11-12T12:12:36.030Z,3.00
2018-11-12T12:15:05.008Z,3.00
2018-11-12T12:17:33.346Z,5.27
2018-11-12T12:20:01.728Z,6.13
2018-11-12T12:22:29.941Z,3.80
2018-11-12T12:24:58.258Z,3.17
2018-11-12T12:27:26.478Z,5.70
2018-11-12T12:29:54.755Z,3.17
2018-11-12T12:32:23.033Z,3.90
2018-11-12T12:34:51.339Z,6.97
2018-11-12T12:37:19.551Z,3.07
2018-11-12T12:39:47.834Z,3.13
2018-11-12T12:42:16.093Z,2.93
2018-11-12T12:44:44.394Z,4.20
2018-11-12T12:47:12.657Z,3.30
2018-11-12T12:49:40.983Z,3.30
2018-11-12T12:52:09.202Z,6.90
2018-11-12T12:54:37.494Z,7.80
2018-11-12T12:57:05.719Z,6.17
2018-11-12T12:59:33.979Z,7.60
2018-11-12T13:02:02.279Z,6.10
2018-11-12T13:04:30.490Z,6.03
2018-11-12T13:06:58.779Z,4.67
2018-11-12T13:09:27.087Z,4.13
2018-11-12T13:11:55.324Z,3.70
2018-11-12T13:14:23.663Z,4.33
2018-11-12T13:16:51.835Z,4.43
2018-11-12T13:19:20.064Z,9.50
2018-11-12T13:21:48.394Z,7.33
2018-11-12T13:24:16.628Z,5.23
2018-11-12T13:26:44.833Z,7.00
2018-11-12T13:29:13.050Z,5.60
2018-11-12T13:31:41.321Z,4.37
2018-11-12T13:34:09.575Z,4.90
2018-11-12T13:36:37.854Z,4.67
2018-11-12T13:39:09.144Z,4.53
2018-11-12T13:41:37.418Z,7.93
2018-11-12T13:44:06.071Z,7.33
2018-11-12T13:46:39.879Z,12.37
2018-11-12T13:49:08.128Z,4.47
2018-11-12T13:51:36.416Z,9.03
2018-11-12T13:54:05.238Z,4.27
2018-11-12T13:56:33.532Z,5.53
2018-11-12T13:59:01.950Z,4.63
2018-11-12T14:01:30.676Z,5.00
2018-11-12T14:03:58.956Z,4.77
2018-11-12T14:06:27.197Z,4.23
2018-11-12T14:08:56.086Z,7.23
2018-11-12T14:11:24.675Z,8.13
2018-11-12T14:13:53.096Z,5.33
2018-11-12T14:16:21.325Z,5.23
2018-11-12T14:18:49.611Z,6.63
2018-11-12T14:21:19.060Z,5.53
2018-11-12T14:23:48.383Z,5.73
2018-11-12T14:26:17.579Z,6.50
2018-11-12T14:28:45.968Z,6.00
2018-11-12T14:31:14.108Z,6.80
2018-11-12T14:33:42.475Z,4.60
2018-11-12T14:36:10.810Z,6.27
2018-11-12T14:38:38.985Z,7.07
2018-11-12T14:41:07.215Z,5.93
2018-11-12T14:43:35.440Z,6.40
2018-11-12T14:46:03.699Z,6.60
2018-11-12T14:48:31.976Z,9.77
2018-11-12T14:51:00.265Z,5.97
2018-11-12T14:53:28.437Z,7.17
2018-11-12T14:55:56.680Z,6.23
2018-11-12T14:58:24.922Z,6.83
2018-11-12T15:00:53.159Z,7.03
2018-11-12T15:03:21.434Z,9.80
2018-11-12T15:05:50.596Z,8.40
2018-11-12T15:08:18.834Z,7.70
2018-11-12T15:10:47.095Z,7.60
2018-11-12T15:13:15.365Z,7.07
2018-11-12T15:15:43.595Z,6.27
2018-11-12T15:18:11.877Z,6.77
2018-11-12T15:20:40.113Z,10.87
2018-11-12T15:23:08.402Z,8.63
2018-11-12T15:25:36.698Z,10.70
2018-11-12T15:28:05.468Z,7.53
2018-11-12T15:30:33.743Z,10.40
2018-11-12T15:33:02.025Z,9.97
2018-11-12T15:35:30.234Z,8.77
2018-11-12T15:37:58.541Z,7.97
2018-11-12T15:40:26.765Z,8.30
2018-11-12T15:42:54.998Z,7.57
2018-11-12T15:45:24.454Z,9.10
2018-11-12T15:47:52.897Z,9.10
2018-11-12T15:50:24.203Z,10.87
2018-11-12T15:52:52.420Z,9.50
2018-11-12T15:55:20.675Z,7.93
2018-11-12T15:57:49.068Z,12.27
2018-11-12T16:00:17.408Z,10.30
2018-11-12T16:02:45.658Z,10.03
2018-11-12T16:05:14.522Z,8.90
2018-11-12T16:07:42.996Z,12.30
2018-11-12T16:10:15.582Z,13.40
2018-11-12T16:12:43.954Z,10.40
2018-11-12T16:15:13.241Z,12.80
2018-11-12T16:17:41.559Z,42.27
2018-11-12T16:20:12.594Z,26.83
2018-11-12T16:22:41.300Z,19.77
2018-11-12T16:25:09.524Z,13.60
2018-11-12T16:27:37.788Z,12.60
2018-11-12T16:30:07.128Z,10.50
2018-11-12T16:32:35.439Z,12.73
2018-11-12T16:35:04.094Z,12.70
2018-11-12T16:37:32.352Z,14.07
2018-11-12T16:40:00.654Z,11.37
2018-11-12T16:42:28.884Z,13.00
2018-11-12T16:44:57.147Z,10.93
2018-11-12T16:47:25.479Z,11.33
2018-11-12T16:49:53.769Z,13.60
2018-11-12T16:52:22.120Z,15.13
2018-11-12T16:54:51.504Z,13.47
2018-11-12T16:57:19.760Z,12.93
2018-11-12T16:59:48.033Z,13.43
2018-11-12T17:02:16.352Z,12.50
2018-11-12T17:04:44.610Z,12.60
2018-11-12T17:07:12.873Z,16.73
2018-11-12T17:09:41.114Z,12.70
2018-11-12T17:12:09.396Z,12.63
2018-11-12T17:14:37.833Z,12.80
2018-11-12T17:17:06.397Z,14.57
2018-11-12T17:19:34.661Z,12.37
2018-11-12T17:22:02.983Z,15.43
2018-11-12T17:24:31.316Z,13.33
2018-11-12T17:26:59.619Z,12.93
2018-11-12T17:29:27.859Z,11.23
2018-11-12T17:31:56.083Z,12.43
2018-11-12T17:34:24.343Z,12.93
2018-11-12T17:36:52.654Z,15.07
2018-11-12T17:39:20.963Z,15.77
2018-11-12T17:41:49.243Z,14.93
2018-11-12T17:44:17.539Z,12.17
2018-11-12T17:46:45.808Z,13.37
2018-11-12T17:49:14.413Z,16.23
2018-11-12T17:51:42.764Z,12.47
2018-11-12T17:54:11.179Z,14.77
2018-11-12T17:56:39.423Z,15.70
2018-11-12T17:59:07.815Z,14.20
2018-11-12T18:01:36.412Z,13.10
2018-11-12T18:04:07.396Z,18.83
2018-11-12T18:06:35.633Z,14.30
2018-11-12T18:09:05.168Z,14.67
2018-11-12T18:11:33.479Z,12.73
2018-11-12T18:14:02.023Z,16.17
2018-11-12T18:16:30.296Z,12.70
2018-11-12T18:18:58.559Z,15.77
2018-11-12T18:21:27.151Z,15.77
2018-11-12T18:23:55.489Z,18.33
2018-11-12T18:26:23.749Z,20.50
2018-11-12T18:28:54.038Z,14.40
2018-11-12T18:31:22.361Z,17.03
2018-11-12T18:33:50.615Z,16.87
2018-11-12T18:36:18.871Z,15.40
2018-11-12T18:38:47.747Z,16.63
2018-11-12T18:41:16.042Z,20.73
2018-11-12T18:43:44.386Z,18.93
2018-11-12T18:46:12.754Z,18.93
2018-11-12T18:48:41.081Z,16.70
2018-11-12T18:51:09.419Z,22.13
2018-11-12T18:53:37.632Z,20.73
2018-11-12T18:56:06.072Z,16.90
2018-11-12T18:58:34.478Z,21.40
2018-11-12T19:01:03.034Z,18.17
2018-11-12T19:03:31.385Z,18.30
2018-11-12T19:05:59.886Z,16.87
2018-11-12T19:08:28.303Z,16.43
2018-11-12T19:10:56.750Z,17.47
2018-11-12T19:13:25.146Z,17.03
2018-11-12T19:15:53.451Z,19.20
2018-11-12T19:18:21.946Z,24.20
2018-11-12T19:20:50.218Z,18.23
2018-11-12T19:23:18.579Z,23.33
2018-11-12T19:25:46.847Z,15.13
2018-11-12T19:28:15.131Z,18.47
2018-11-12T19:30:43.457Z,19.77
2018-11-12T19:33:11.696Z,19.50
2018-11-12T19:35:40.052Z,19.43
2018-11-12T19:38:08.442Z,18.67
2018-11-12T19:40:36.968Z,17.10
2018-11-12T19:43:05.248Z,19.47
2018-11-12T19:45:33.518Z,16.23
2018-11-12T19:48:01.787Z,19.77
2018-11-12T19:50:30.608Z,17.50
2018-11-12T19:52:59.686Z,20.90
2018-11-12T19:55:28.019Z,16.60
2018-11-12T19:57:56.356Z,15.93
2018-11-12T20:00:26.840Z,21.40
2018-11-12T20:02:56.224Z,21.73
2018-11-12T20:05:25.838Z,18.33
2018-11-12T20:07:54.153Z,18.60
2018-11-12T20:10:23.043Z,15.97
2018-11-12T20:12:51.416Z,22.70
2018-11-12T20:15:21.121Z,20.80
2018-11-12T20:17:50.275Z,23.60
2018-11-12T20:20:19.909Z,24.63
2018-11-12T20:22:48.750Z,25.87
2018-11-12T20:25:17.873Z,23.70
2018-11-12T20:27:46.682Z,23.07
2018-11-12T20:30:20.204Z,21.37
2018-11-12T20:32:48.456Z,26.00
2018-11-12T20:35:16.748Z,24.23
2018-11-12T20:37:45.021Z,27.33
2018-11-12T20:40:14.290Z,28.00
2018-11-12T20:42:43.504Z,25.67
2018-11-12T20:45:13.280Z,28.80
2018-11-12T20:47:42.140Z,25.70
2018-11-12T20:50:11.539Z,27.73
2018-11-12T20:52:40.057Z,27.57
2018-11-12T20:55:09.323Z,26.30
2018-11-12T20:57:38.194Z,25.77
2018-11-12T21:00:11.753Z,24.23
2018-11-12T21:02:40.823Z,29.13
2018-11-12T21:05:09.815Z,26.07
2018-11-12T21:07:38.308Z,27.57
2018-11-12T21:10:07.952Z,26.87
2018-11-12T21:12:36.223Z,28.13
2018-11-12T21:15:04.773Z,32.17
2018-11-12T21:17:33.163Z,29.07
2018-11-12T21:20:01.563Z,28.60
2018-11-12T21:22:29.941Z,36.80
2018-11-12T21:24:58.449Z,25.30
2018-11-12T21:27:26.945Z,30.23
2018-11-12T21:29:55.227Z,29.77
2018-11-12T21:32:23.496Z,28.00
2018-11-12T21:34:51.773Z,29.73
2018-11-12T21:37:20.091Z,26.23
2018-11-12T21:39:48.531Z,35.17
2018-11-12T21:42:16.887Z,29.47
2018-11-12T21:44:45.174Z,30.90
2018-11-12T21:47:13.457Z,37.17
2018-11-12T21:49:41.814Z,32.03
2018-11-12T21:52:10.096Z,32.97
2018-11-12T21:54:38.548Z,31.63
2018-11-12T21:57:06.779Z,35.93
2018-11-12T21:59:35.087Z,33.87
2018-11-12T22:02:03.429Z,33.73
2018-11-12T22:04:31.787Z,38.53
2018-11-12T22:07:00.072Z,31.27
2018-11-12T22:09:28.358Z,30.80
2018-11-12T22:11:56.727Z,32.57
2018-11-12T22:14:25.070Z,32.47
2018-11-12T22:16:53.938Z,31.13
2018-11-12T22:19:22.934Z,33.40
2018-11-12T22:21:51.695Z,32.20
2018-11-12T22:24:20.027Z,31.60
2018-11-12T22:26:48.360Z,35.53
2018-11-12T22:29:16.603Z,31.73
2018-11-12T22:31:44.883Z,34.23
2018-11-12T22:34:13.158Z,34.17
2018-11-12T22:36:41.533Z,30.90
2018-11-12T22:39:10.719Z,35.77
2018-11-12T22:41:38.999Z,30.33
2018-11-12T22:44:07.283Z,32.33
2018-11-12T22:46:35.565Z,30.07
2018-11-12T22:49:03.909Z,33.37
2018-11-12T22:51:32.184Z,26.60
2018-11-12T22:54:00.494Z,27.63
2018-11-12T22:56:28.757Z,25.93
2018-11-12T22:58:57.008Z,30.50
2018-11-12T23:01:29.023Z,30.17
2018-11-12T23:03:59.202Z,27.80
2018-11-12T23:06:31.271Z,33.80
2018-11-12T23:09:02.904Z,31.47
2018-11-12T23:11:32.756Z,32.63
2018-11-12T23:14:07.166Z,26.53
2018-11-12T23:16:38.094Z,30.27
2018-11-12T23:19:08.453Z,26.90
2018-11-12T23:21:38.562Z,27.30
2018-11-12T23:24:07.179Z,29.53
2018-11-12T23:26:36.931Z,29.27
2018-11-12T23:29:08.442Z,26.43
2018-11-12T23:31:38.073Z,30.40
2018-11-12T23:34:06.324Z,32.93
2018-11-12T23:36:34.576Z,27.73
2018-11-12T23:39:02.909Z,34.37
2018-11-12T23:41:31.174Z,29.33
2018-11-12T23:43:59.448Z,28.63
2018-11-12T23:46:27.784Z,27.13
2018-11-12T23:48:56.138Z,29.13
2018-11-12T23:51:24.458Z,27.90
2018-11-12T23:53:52.719Z,29.93
2018-11-12T23:56:21.100Z,31.13
2018-11-12T23:58:49.375Z,34.20
